Time;durP1;ratioP1;P1;durP2;ratioP2;P2;SDS_P1;SDS_P2;PMS_P1;PMS_P2;Temp;Humidity;BMP_temperature;BMP_pressure;BME280_temperature;BME280_humidity;BME280_pressure;Samples;Min_cycle;Max_cycle;Signal;HPM_P1;HPM_P2
2021/05/28 00:00:53;;;;;;;11.75;8.27;;;;;;;20.13;100.00;100782.03;4908595;29;20038;-75
2021/05/28 00:03:39;;;;;;;11.02;9.10;;;;;;;20.47;100.00;100783.66;4920798;29;20103;-75
2021/05/28 00:06:25;;;;;;;9.65;8.73;;;;;;;20.71;100.00;100782.25;4908862;29;20070;-76
2021/05/28 00:09:11;;;;;;;12.15;8.18;;;;;;;20.36;100.00;100786.06;4921160;29;20450;-75
2021/05/28 00:11:57;;;;;;;9.55;8.63;;;;;;;20.26;100.00;100795.53;4921608;29;20040;-75
2021/05/28 00:14:43;;;;;;;12.98;9.00;;;;;;;20.14;100.00;100794.41;4921182;29;20148;-75
2021/05/28 00:17:28;;;;;;;13.70;10.60;;;;;;;20.17;100.00;100783.59;4921279;29;20462;-75
2021/05/28 00:20:15;;;;;;;12.10;9.60;;;;;;;20.33;100.00;100786.25;4907666;29;20028;-75
2021/05/28 00:23:01;;;;;;;11.15;9.93;;;;;;;20.19;100.00;100791.47;4920574;29;20044;-75
2021/05/28 00:25:47;;;;;;;13.27;10.77;;;;;;;20.30;100.00;100795.28;4907220;29;20035;-75
2021/05/28 00:28:33;;;;;;;12.82;10.75;;;;;;;20.35;100.00;100792.34;4920224;29;20028;-76
2021/05/28 00:31:20;;;;;;;12.80;10.18;;;;;;;20.37;100.00;100782.50;4919824;29;20036;-75
2021/05/28 00:34:05;;;;;;;13.82;11.13;;;;;;;20.37;100.00;100790.47;4921314;29;20068;-75
2021/05/28 00:36:51;;;;;;;13.82;10.60;;;;;;;20.17;100.00;100786.25;4919834;29;20083;-76
2021/05/28 00:39:37;;;;;;;11.07;9.95;;;;;;;20.28;100.00;100783.84;4920854;29;20513;-76
2021/05/28 00:42:23;;;;;;;13.27;10.13;;;;;;;20.23;100.00;100785.03;4907133;29;20415;-76
2021/05/28 00:45:09;;;;;;;12.77;11.07;;;;;;;20.05;100.00;100778.91;4919887;29;20035;-75
2021/05/28 00:47:55;;;;;;;12.65;11.35;;;;;;;20.03;100.00;100774.63;4919701;29;20423;-75
2021/05/28 00:50:41;;;;;;;15.77;11.18;;;;;;;20.08;100.00;100776.09;4919617;29;20450;-75
2021/05/28 00:53:28;;;;;;;15.27;10.85;;;;;;;20.39;100.00;100786.78;4907182;29;20064;-75
2021/05/28 00:56:15;;;;;;;15.27;12.30;;;;;;;20.15;100.00;100788.16;4919329;29;20044;-75
2021/05/28 00:59:02;;;;;;;12.90;11.60;;;;;;;20.55;100.00;100765.44;4919459;29;20036;-75
2021/05/28 01:01:48;;;;;;;15.63;12.70;;;;;;;20.60;100.00;100761.59;4919367;29;20032;-75
2021/05/28 01:04:34;;;;;;;13.52;12.23;;;;;;;20.61;100.00;100752.66;4907120;29;20063;-76
2021/05/28 01:07:19;;;;;;;14.40;12.88;;;;;;;20.52;100.00;100762.97;4919093;29;20024;-76
2021/05/28 01:10:06;;;;;;;15.27;13.32;;;;;;;20.27;100.00;100773.28;4907042;29;20028;-76
2021/05/28 01:12:51;;;;;;;13.90;12.45;;;;;;;20.39;100.00;100769.94;4906979;29;20472;-76
2021/05/28 01:15:38;;;;;;;14.95;12.43;;;;;;;20.35;100.00;100773.72;4920184;29;20031;-76
2021/05/28 01:18:24;;;;;;;13.90;12.60;;;;;;;20.32;100.00;100780.06;4918913;29;20028;-76
2021/05/28 01:21:10;;;;;;;16.50;13.35;;;;;;;20.27;100.00;100795.44;4919980;29;20051;-76
2021/05/28 01:23:56;;;;;;;15.43;13.82;;;;;;;20.46;100.00;100792.59;4907076;29;20159;-76
2021/05/28 01:26:42;;;;;;;14.20;12.75;;;;;;;20.12;100.00;100787.44;4906144;29;20055;-76
2021/05/28 01:29:28;;;;;;;14.50;12.38;;;;;;;20.23;100.00;100785.91;4919185;29;20036;-76
2021/05/28 01:32:15;;;;;;;14.82;13.20;;;;;;;20.43;100.00;100787.44;4906208;29;20041;-76
2021/05/28 01:35:00;;;;;;;16.02;12.75;;;;;;;20.18;100.00;100798.63;4918995;29;20465;-76
2021/05/28 01:37:47;;;;;;;13.85;12.35;;;;;;;20.31;100.00;100794.34;4918474;29;20031;-76
2021/05/28 01:40:33;;;;;;;14.68;13.18;;;;;;;20.24;100.00;100784.97;4919792;29;20028;-76
2021/05/28 01:43:19;;;;;;;13.52;12.10;;;;;;;20.49;100.00;100779.97;4919563;29;20094;-75
2021/05/28 01:46:05;;;;;;;13.65;12.25;;;;;;;20.10;100.00;100787.56;4920127;29;20036;-76
2021/05/28 01:48:51;;;;;;;12.80;11.40;;;;;;;19.96;100.00;100786.53;4918628;29;20032;-76
2021/05/28 01:51:37;;;;;;;13.90;11.50;;;;;;;20.37;100.00;100788.66;4919017;29;20027;-76
2021/05/28 01:54:23;;;;;;;14.85;12.38;;;;;;;20.44;100.00;100779.38;4918804;29;20027;-75
2021/05/28 01:57:10;;;;;;;13.68;12.23;;;;;;;20.07;100.00;100790.34;4919904;29;20071;-77
2021/05/28 01:59:56;;;;;;;15.45;11.52;;;;;;;20.44;100.00;100789.16;4919468;29;20413;-76
2021/05/28 02:02:42;;;;;;;13.50;11.90;;;;;;;20.09;100.00;100780.50;4919049;29;20052;-76
2021/05/28 02:05:27;;;;;;;16.00;12.02;;;;;;;20.31;100.00;100786.34;4918300;29;20047;-75
2021/05/28 02:08:14;;;;;;;13.75;11.50;;;;;;;20.21;100.00;100784.28;4918954;29;20474;-75
2021/05/28 02:11:00;;;;;;;14.10;11.65;;;;;;;20.01;100.00;100769.38;4919698;29;20039;-75
2021/05/28 02:13:46;;;;;;;15.05;13.32;;;;;;;20.08;100.00;100759.25;4904499;29;20039;-75
2021/05/28 02:16:33;;;;;;;14.60;12.13;;;;;;;20.27;100.00;100759.97;4905379;29;20103;-75
2021/05/28 02:19:20;;;;;;;14.85;13.20;;;;;;;19.98;100.00;100768.69;4919077;29;20425;-76
2021/05/28 02:22:10;;;;;;;14.80;12.70;;;;;;;20.11;100.00;100775.09;4906059;29;20070;-76
2021/05/28 02:24:56;;;;;;;13.73;12.30;;;;;;;19.42;100.00;100771.78;4918821;29;20469;-76
2021/05/28 02:27:43;;;;;;;15.13;12.70;;;;;;;19.95;100.00;100775.06;4917878;29;20046;-76
2021/05/28 02:30:29;;;;;;;16.52;13.98;;;;;;;19.97;100.00;100765.16;4918193;29;20035;-76
2021/05/28 02:33:15;;;;;;;15.43;13.77;;;;;;;19.89;100.00;100770.06;4918816;29;20087;-76
2021/05/28 02:36:00;;;;;;;15.85;13.45;;;;;;;20.07;100.00;100768.19;4918677;29;20028;-76
2021/05/28 02:38:46;;;;;;;15.90;13.52;;;;;;;20.02;100.00;100771.13;4918069;29;20058;-76
2021/05/28 02:41:32;;;;;;;15.80;13.23;;;;;;;20.07;100.00;100766.41;4917636;29;20072;-76
2021/05/28 02:44:18;;;;;;;15.85;14.02;;;;;;;20.34;100.00;100762.22;4917121;29;20046;-76
2021/05/28 02:47:05;;;;;;;16.13;14.43;;;;;;;20.09;100.00;100763.66;4917852;29;20092;-76
2021/05/28 02:49:51;;;;;;;17.63;15.45;;;;;;;20.10;100.00;100776.91;4917458;29;20509;-76
2021/05/28 02:52:37;;;;;;;15.98;14.32;;;;;;;20.40;100.00;100774.31;4905733;29;20039;-76
2021/05/28 02:55:22;;;;;;;14.18;12.68;;;;;;;20.33;100.00;100764.97;4917978;29;20453;-75
2021/05/28 02:58:09;;;;;;;15.38;12.95;;;;;;;20.42;100.00;100762.66;4926736;29;20059;-75
2021/05/28 03:00:54;;;;;;;16.70;13.75;;;;;;;20.45;100.00;100769.59;4934494;29;20028;-75
2021/05/28 03:03:40;;;;;;;17.30;15.50;;;;;;;20.42;100.00;100773.31;4931891;29;20047;-75
2021/05/28 03:06:26;;;;;;;15.50;13.88;;;;;;;20.32;100.00;100776.53;4923420;29;20031;-76
2021/05/28 03:09:11;;;;;;;17.20;15.48;;;;;;;20.68;100.00;100780.63;4908185;29;20020;-77
2021/05/28 03:11:57;;;;;;;19.45;15.52;;;;;;;20.43;100.00;100777.66;4926676;29;20044;-76
2021/05/28 03:14:43;;;;;;;19.50;15.43;;;;;;;20.54;100.00;100779.72;4913250;29;20028;-76
2021/05/28 03:17:29;;;;;;;18.15;16.25;;;;;;;20.70;100.00;100772.56;4923631;29;20450;-76
2021/05/28 03:20:22;;;;;;;18.80;16.58;;;;;;;20.59;100.00;100767.88;4908132;29;20036;-76
2021/05/28 03:23:08;;;;;;;19.67;17.58;;;;;;;20.51;100.00;100764.78;4919446;29;20107;-77
2021/05/28 03:25:53;;;;;;;20.48;16.10;;;;;;;20.48;100.00;100764.94;4917786;29;20091;-76
2021/05/28 03:28:39;;;;;;;26.13;17.73;;;;;;;20.35;100.00;100771.94;4917917;29;20064;-75
2021/05/28 03:31:25;;;;;;;20.13;17.70;;;;;;;20.83;100.00;100782.41;4917083;29;20043;-77
2021/05/28 03:34:11;;;;;;;19.55;17.55;;;;;;;20.83;100.00;100771.75;4904875;29;20119;-76
2021/05/28 03:36:59;;;;;;;19.98;17.70;;;;;;;20.64;100.00;100780.88;4917640;29;20028;-77
2021/05/28 03:39:45;;;;;;;23.27;17.27;;;;;;;20.73;100.00;100781.22;4918054;29;20038;-75
2021/05/28 03:42:31;;;;;;;17.60;15.80;;;;;;;20.87;100.00;100773.31;4917462;29;20370;-76
2021/05/28 03:45:17;;;;;;;20.65;17.58;;;;;;;20.58;100.00;100774.09;4917288;29;20028;-77
2021/05/28 03:48:03;;;;;;;19.75;16.35;;;;;;;20.75;100.00;100775.81;4917117;29;20043;-75
2021/05/28 03:50:49;;;;;;;18.92;16.80;;;;;;;20.45;100.00;100783.75;4917983;29;20028;-76
2021/05/28 03:53:35;;;;;;;21.33;16.50;;;;;;;20.45;100.00;100786.41;4905057;29;20044;-76
2021/05/28 03:56:20;;;;;;;20.48;15.93;;;;;;;20.76;100.00;100786.38;4917255;29;20059;-75
2021/05/28 03:59:06;;;;;;;16.95;14.57;;;;;;;21.03;100.00;100779.47;4917652;29;20429;-75
2021/05/28 04:01:52;;;;;;;17.58;13.43;;;;;;;21.07;100.00;100775.69;4903775;29;20115;-75
2021/05/28 04:04:38;;;;;;;15.90;13.40;;;;;;;20.95;100.00;100779.06;4898371;29;20053;-76
2021/05/28 04:07:25;;;;;;;17.90;14.10;;;;;;;20.89;100.00;100784.72;4897733;29;20044;-75
2021/05/28 04:10:12;;;;;;;16.08;13.30;;;;;;;21.09;100.00;100783.59;4898090;29;20083;-76
2021/05/28 04:12:58;;;;;;;15.63;13.07;;;;;;;21.26;100.00;100778.94;4897914;29;20092;-76
2021/05/28 04:15:44;;;;;;;15.27;13.43;;;;;;;20.94;100.00;100776.50;4897804;29;20509;-76
2021/05/28 04:18:29;;;;;;;15.23;13.15;;;;;;;21.27;100.00;100771.81;4900295;29;20115;-76
2021/05/28 04:21:15;;;;;;;16.58;14.20;;;;;;;21.35;100.00;100769.53;4902300;29;20028;-76
2021/05/28 04:24:01;;;;;;;14.60;12.45;;;;;;;21.21;100.00;100770.38;4901053;29;20029;-75
2021/05/28 04:26:48;;;;;;;17.55;14.10;;;;;;;21.14;100.00;100758.34;4901963;29;20029;-76
2021/05/28 04:29:33;;;;;;;17.85;14.65;;;;;;;21.12;100.00;100767.38;4903028;29;20033;-76
2021/05/28 04:32:19;;;;;;;20.63;15.85;;;;;;;20.95;100.00;100772.88;4900874;29;20116;-76
2021/05/28 04:35:05;;;;;;;18.52;16.48;;;;;;;20.88;100.00;100777.69;4901524;29;20422;-76
2021/05/28 04:37:51;;;;;;;18.13;16.13;;;;;;;21.06;100.00;100760.63;4901286;29;20032;-76
2021/05/28 04:40:37;;;;;;;20.30;16.33;;;;;;;20.70;100.00;100770.75;4900797;29;20035;-76
2021/05/28 04:43:23;;;;;;;22.17;17.23;;;;;;;20.68;100.00;100777.97;4902438;29;20071;-76
2021/05/28 04:46:09;;;;;;;21.98;17.58;;;;;;;20.90;100.00;100775.75;4899966;29;20067;-75
2021/05/28 04:48:55;;;;;;;20.98;16.63;;;;;;;21.25;100.00;100769.22;4899705;29;20036;-76
2021/05/28 04:51:40;;;;;;;22.25;16.80;;;;;;;20.94;100.00;100771.16;4902032;29;20076;-76
2021/05/28 04:54:26;;;;;;;21.05;17.48;;;;;;;20.67;100.00;100773.59;4901398;29;20033;-76
2021/05/28 04:57:12;;;;;;;21.75;16.17;;;;;;;20.92;100.00;100776.56;4900725;29;20043;-76
2021/05/28 04:59:58;;;;;;;19.52;16.90;;;;;;;21.26;100.00;100770.94;4900986;29;20040;-76
2021/05/28 05:02:44;;;;;;;17.55;15.48;;;;;;;20.92;100.00;100778.38;4906030;29;20056;-77
2021/05/28 05:05:31;;;;;;;19.58;15.90;;;;;;;20.86;100.00;100778.72;4919397;29;20035;-76
2021/05/28 05:08:16;;;;;;;18.48;14.38;;;;;;;21.30;100.00;100774.31;4918930;29;20036;-75
2021/05/28 05:11:03;;;;;;;17.00;13.82;;;;;;;21.00;100.00;100769.00;4919405;29;20050;-76
2021/05/28 05:13:48;;;;;;;16.35;12.65;;;;;;;21.50;100.00;100772.13;4920309;29;20118;-76
2021/05/28 05:16:34;;;;;;;17.60;13.88;;;;;;;21.84;100.00;100768.25;4920115;29;20472;-76
2021/05/28 05:19:20;;;;;;;14.65;12.65;;;;;;;22.02;100.00;100772.44;4906998;29;20090;-76
2021/05/28 05:22:06;;;;;;;16.65;13.93;;;;;;;21.95;100.00;100777.28;4907074;29;20453;-76
2021/05/28 05:24:52;;;;;;;18.02;15.20;;;;;;;21.70;100.00;100785.09;4906789;29;20079;-76
2021/05/28 05:27:37;;;;;;;14.55;12.90;;;;;;;21.96;100.00;100776.34;4920571;29;20063;-76
2021/05/28 05:30:23;;;;;;;15.48;13.88;;;;;;;22.12;100.00;100779.75;4906576;29;20381;-77
2021/05/28 05:33:11;;;;;;;16.23;13.45;;;;;;;21.91;100.00;100786.44;4906434;29;20031;-75
2021/05/28 05:35:56;;;;;;;16.50;13.63;;;;;;;22.33;100.00;100783.72;4907149;29;20118;-76
2021/05/28 05:38:42;;;;;;;17.13;14.80;;;;;;;22.18;100.00;100776.69;4919007;29;20112;-77
2021/05/28 05:41:29;;;;;;;17.38;14.05;;;;;;;21.88;100.00;100777.78;4919413;29;20099;-76
2021/05/28 05:44:14;;;;;;;16.35;13.48;;;;;;;21.93;100.00;100784.53;4919032;29;20028;-76
2021/05/28 05:47:00;;;;;;;16.52;13.57;;;;;;;22.35;100.00;100779.13;4919015;29;20032;-76
2021/05/28 05:49:46;;;;;;;16.48;13.20;;;;;;;22.47;100.00;100769.50;4919305;29;20024;-77
2021/05/28 05:52:32;;;;;;;15.65;13.15;;;;;;;22.23;100.00;100777.25;4919952;29;20118;-75
2021/05/28 05:55:18;;;;;;;16.33;14.50;;;;;;;22.84;100.00;100772.31;4918492;29;20028;-76
2021/05/28 05:58:04;;;;;;;18.80;15.70;;;;;;;22.27;100.00;100769.91;4920042;29;20028;-76
2021/05/28 06:00:49;;;;;;;17.60;15.43;;;;;;;22.25;100.00;100769.13;4918531;29;20036;-76
2021/05/28 06:03:36;;;;;;;14.50;12.05;;;;;;;22.10;100.00;100765.63;4918573;29;20195;-76
2021/05/28 06:06:22;;;;;;;14.73;12.77;;;;;;;21.93;100.00;100773.88;4919236;29;20036;-76
2021/05/28 06:09:08;;;;;;;13.77;12.20;;;;;;;21.18;100.00;100777.69;4918640;29;20119;-76
2021/05/28 06:11:55;;;;;;;17.77;11.77;;;;;;;22.02;100.00;100775.94;4918314;29;20076;-75
2021/05/28 06:14:41;;;;;;;14.35;11.68;;;;;;;22.31;100.00;100774.94;4919223;29;20035;-75
2021/05/28 06:17:26;;;;;;;13.10;11.20;;;;;;;21.40;100.00;100776.31;4918487;29;20038;-75
2021/05/28 06:20:12;;;;;;;13.32;10.38;;;;;;;22.09;100.00;100776.41;4905539;29;20044;-75
2021/05/28 06:22:59;;;;;;;13.88;9.70;;;;;;;22.43;100.00;100779.47;4917831;29;20068;-76
2021/05/28 06:25:46;;;;;;;13.35;11.48;;;;;;;21.90;100.00;100783.88;4918153;29;20040;-75
2021/05/28 06:28:32;;;;;;;11.65;8.63;;;;;;;21.78;100.00;100782.81;4919228;29;20035;-76
2021/05/28 06:31:18;;;;;;;13.93;9.95;;;;;;;22.13;100.00;100780.59;4919083;29;20066;-76
2021/05/28 06:34:04;;;;;;;12.90;8.95;;;;;;;22.51;100.00;100779.88;4918765;29;20099;-76
2021/05/28 06:36:49;;;;;;;15.45;10.00;;;;;;;21.98;100.00;100786.94;4905366;29;20028;-76
2021/05/28 06:39:35;;;;;;;14.05;10.90;;;;;;;22.31;100.00;100792.78;4918413;29;20103;-77
2021/05/28 06:42:22;;;;;;;13.52;10.57;;;;;;;22.28;100.00;100784.97;4920545;29;20032;-77
2021/05/28 06:45:08;;;;;;;11.13;8.80;;;;;;;22.77;100.00;100779.03;4918426;29;20040;-77
2021/05/28 06:47:54;;;;;;;11.48;8.95;;;;;;;23.06;100.00;100779.72;4917695;29;20055;-77
2021/05/28 06:50:41;;;;;;;13.50;7.93;;;;;;;23.26;100.00;100780.13;4918230;29;20051;-77
2021/05/28 06:53:27;;;;;;;15.02;8.43;;;;;;;22.64;100.00;100774.59;4918679;29;20040;-75
2021/05/28 06:56:12;;;;;;;11.52;7.43;;;;;;;22.39;100.00;100783.31;4917390;29;20032;-76
2021/05/28 06:58:58;;;;;;;11.80;8.05;;;;;;;22.44;100.00;100785.69;4918873;29;20126;-76
2021/05/28 07:01:44;;;;;;;11.70;7.53;;;;;;;22.21;100.00;100781.84;4918088;29;20036;-76
2021/05/28 07:04:30;;;;;;;16.98;9.00;;;;;;;22.24;100.00;100786.97;4918612;29;20094;-76
2021/05/28 07:07:15;;;;;;;9.98;8.60;;;;;;;22.25;100.00;100785.16;4917381;29;20475;-77
2021/05/28 07:10:02;;;;;;;14.85;9.18;;;;;;;22.43;100.00;100794.66;4917333;29;20032;-76
2021/05/28 07:12:49;;;;;;;14.77;9.40;;;;;;;22.60;100.00;100792.66;4905189;29;20110;-76
2021/05/28 07:15:37;;;;;;;14.32;9.82;;;;;;;22.79;100.00;100792.28;4918958;29;20032;-76
2021/05/28 07:18:23;;;;;;;17.83;9.63;;;;;;;22.68;100.00;100792.13;4917976;29;20036;-78
2021/05/28 07:21:09;;;;;;;12.23;9.75;;;;;;;22.69;100.00;100801.84;4918551;29;20060;-77
2021/05/28 07:23:55;;;;;;;16.60;11.40;;;;;;;22.44;100.00;100802.56;4918782;29;20059;-75
2021/05/28 07:26:41;;;;;;;15.13;10.98;;;;;;;22.55;100.00;100804.56;4917461;29;20111;-76
2021/05/28 07:29:27;;;;;;;11.65;9.93;;;;;;;22.29;100.00;100808.03;4918273;29;20036;-77
2021/05/28 07:32:12;;;;;;;15.98;11.60;;;;;;;22.19;100.00;100804.25;4904608;29;20075;-77
2021/05/28 07:34:58;;;;;;;11.85;10.65;;;;;;;22.15;100.00;100803.56;4906090;29;20099;-77
2021/05/28 07:37:44;;;;;;;11.98;10.25;;;;;;;22.02;100.00;100813.31;4918683;29;20027;-76
2021/05/28 07:40:30;;;;;;;11.85;10.65;;;;;;;22.02;100.00;100818.63;4918339;29;20024;-76
2021/05/28 07:43:16;;;;;;;13.02;11.52;;;;;;;21.73;100.00;100816.06;4918258;29;20035;-76
2021/05/28 07:46:03;;;;;;;14.50;10.18;;;;;;;21.12;100.00;100818.88;4917413;29;20464;-76
2021/05/28 07:48:49;;;;;;;13.52;10.48;;;;;;;21.58;100.00;100822.31;4917614;29;20040;-76
2021/05/28 07:51:34;;;;;;;14.40;10.43;;;;;;;21.86;100.00;100820.56;4904794;29;20111;-75
2021/05/28 07:54:20;;;;;;;13.32;10.68;;;;;;;21.58;100.00;100827.66;4920555;29;20020;-77
2021/05/28 07:57:07;;;;;;;16.90;10.70;;;;;;;21.10;100.00;100827.94;4920415;29;20111;-76
2021/05/28 07:59:53;;;;;;;15.63;9.77;;;;;;;21.47;100.00;100835.44;4908491;29;20063;-76
2021/05/28 08:02:38;;;;;;;10.05;8.57;;;;;;;21.33;100.00;100833.59;4921587;29;20064;-75
2021/05/28 08:05:24;;;;;;;14.90;8.98;;;;;;;21.17;100.00;100835.47;4921640;29;20107;-75
2021/05/28 08:08:11;;;;;;;12.43;9.65;;;;;;;21.07;100.00;100833.44;4920491;29;20032;-76
2021/05/28 08:10:57;;;;;;;12.15;9.15;;;;;;;20.80;100.00;100835.84;4922120;29;20067;-75
2021/05/28 08:13:43;;;;;;;11.10;7.85;;;;;;;20.90;100.00;100838.84;4922939;29;20426;-73
2021/05/28 08:16:29;;;;;;;9.45;7.13;;;;;;;20.93;100.00;100836.88;4922065;29;20047;-75
2021/05/28 08:19:15;;;;;;;10.68;7.70;;;;;;;20.99;100.00;100851.66;4921030;29;20087;-76
2021/05/28 08:22:00;;;;;;;10.00;7.20;;;;;;;21.26;100.00;100839.41;4922067;29;20040;-75
2021/05/28 08:24:46;;;;;;;10.13;6.80;;;;;;;21.35;100.00;100846.84;4931567;29;20042;-76
2021/05/28 08:27:35;;;;;;;10.05;6.82;;;;;;;21.37;100.00;100855.59;4924717;29;20028;-76
2021/05/28 08:30:22;;;;;;;12.10;5.72;;;;;;;20.79;100.00;100857.25;4940253;29;20034;-74
2021/05/28 08:33:11;;;;;;;6.57;5.57;;;;;;;20.40;100.00;100868.31;4914444;29;20024;-74
2021/05/28 08:35:57;;;;;;;7.30;4.75;;;;;;;20.22;100.00;100885.31;4922039;29;20369;-74
2021/05/28 08:38:43;;;;;;;5.25;4.25;;;;;;;20.12;100.00;100881.41;4927031;29;20060;-73
2021/05/28 08:41:29;;;;;;;4.40;4.00;;;;;;;20.14;100.00;100882.22;4928148;29;20564;-73
2021/05/28 08:44:24;;;;;;;4.90;3.20;;;;;;;20.14;100.00;100886.66;4927435;29;20086;-73
2021/05/28 08:47:12;;;;;;;6.03;4.22;;;;;;;20.30;100.00;100893.75;4921485;29;20028;-74
2021/05/28 08:49:59;;;;;;;5.05;3.95;;;;;;;19.97;100.00;100886.69;4920910;29;20036;-74
2021/05/28 08:52:45;;;;;;;9.40;5.32;;;;;;;20.14;100.00;100900.84;4920902;29;20433;-74
2021/05/28 08:55:31;;;;;;;7.60;4.80;;;;;;;20.00;100.00;100898.00;4907999;29;20035;-74
2021/05/28 08:58:20;;;;;;;5.70;4.38;;;;;;;19.86;100.00;100902.34;4920827;29;20035;-74
2021/05/28 09:01:08;;;;;;;4.05;3.00;;;;;;;19.43;100.00;100909.00;4906959;29;20070;-74
2021/05/28 09:04:02;;;;;;;3.85;2.80;;;;;;;19.47;100.00;100910.56;4919094;29;20095;-72
2021/05/28 09:06:48;;;;;;;5.93;3.10;;;;;;;19.52;100.00;100916.50;4920673;29;20036;-74
2021/05/28 09:09:34;;;;;;;4.13;2.65;;;;;;;19.13;100.00;100918.47;4920262;29;20040;-73
2021/05/28 09:12:31;;;;;;;4.90;2.88;;;;;;;19.30;100.00;100923.84;4906751;29;20032;-74
2021/05/28 09:15:18;;;;;;;4.50;2.88;;;;;;;19.48;100.00;100927.38;4920509;29;20373;-73
2021/05/28 09:18:04;;;;;;;4.13;3.00;;;;;;;19.47;100.00;100930.97;4919994;29;20039;-76
2021/05/28 09:20:56;;;;;;;5.07;2.80;;;;;;;19.44;100.00;100917.84;4920825;29;20024;-77
2021/05/28 09:23:42;;;;;;;5.35;2.90;;;;;;;19.03;100.00;100915.41;4920305;29;20135;-76
2021/05/28 09:26:36;;;;;;;3.50;2.70;;;;;;;18.80;100.00;100925.41;4920631;29;20032;-76
2021/05/28 09:29:24;;;;;;;4.13;2.60;;;;;;;18.77;100.00;100925.56;4895055;29;20087;-75
2021/05/28 09:32:22;;;;;;;6.82;2.95;;;;;;;18.39;100.00;100924.72;4922385;29;20024;-75
2021/05/28 09:35:13;;;;;;;3.13;2.83;;;;;;;18.55;100.00;100919.53;4922139;29;20032;-76
2021/05/28 09:37:58;;;;;;;4.07;3.33;;;;;;;18.62;100.00;100921.81;4922762;29;20030;-76
2021/05/28 09:40:44;;;;;;;5.72;3.60;;;;;;;18.63;100.00;100918.25;4922476;29;20406;-76
2021/05/28 09:43:34;;;;;;;5.18;3.92;;;;;;;18.96;100.00;100921.94;4907376;29;20106;-75
2021/05/28 09:46:20;;;;;;;4.43;3.95;;;;;;;18.59;100.00;100918.47;4920990;29;20032;-74
2021/05/28 09:49:10;;;;;;;5.00;3.95;;;;;;;18.77;100.00;100913.13;4921428;29;20119;-77
2021/05/28 09:52:10;;;;;;;4.53;3.65;;;;;;;19.03;100.00;100919.84;4920337;29;20036;-75
2021/05/28 09:55:39;;;;;;;4.57;3.90;;;;;;;19.02;100.00;100908.34;4920314;29;20040;-77
2021/05/28 09:59:05;;;;;;;6.15;4.38;;;;;;;18.59;100.00;100915.81;4904719;29;20032;-76
2021/05/28 10:02:36;;;;;;;5.90;4.20;;;;;;;18.79;100.00;100908.63;4918986;29;20471;-76
2021/05/28 10:05:25;;;;;;;6.07;4.75;;;;;;;18.83;100.00;100910.22;4901244;29;20040;-76
2021/05/28 10:08:13;;;;;;;5.93;4.70;;;;;;;18.92;100.00;100907.09;4901979;29;20458;-77
2021/05/28 10:10:59;;;;;;;7.00;5.03;;;;;;;19.13;100.00;100905.19;4900002;29;20059;-75
2021/05/28 10:13:45;;;;;;;6.53;5.35;;;;;;;19.17;100.00;100909.44;4899240;29;20056;-74
2021/05/28 10:16:31;;;;;;;8.57;6.40;;;;;;;19.15;100.00;100908.63;4899979;29;20033;-75
2021/05/28 10:19:18;;;;;;;6.75;5.65;;;;;;;19.22;100.00;100910.06;4899675;29;20035;-75
2021/05/28 10:22:16;;;;;;;6.32;5.40;;;;;;;19.36;100.00;100907.59;4901380;29;20039;-75
2021/05/28 10:25:06;;;;;;;5.90;5.30;;;;;;;19.57;100.00;100914.47;4901533;29;20029;-75
2021/05/28 10:27:56;;;;;;;7.40;6.47;;;;;;;19.10;100.00;100905.34;4900843;29;20063;-75
2021/05/28 10:30:56;;;;;;;9.30;6.78;;;;;;;19.35;100.00;100899.69;4901300;29;20120;-75
2021/05/28 10:33:53;;;;;;;8.65;7.75;;;;;;;19.39;100.00;100891.50;4900955;29;20032;-75
2021/05/28 10:36:43;;;;;;;9.25;7.60;;;;;;;19.31;100.00;100891.03;4900948;29;20032;-75
2021/05/28 10:39:29;;;;;;;10.13;8.18;;;;;;;19.27;100.00;100885.94;4900394;29;20439;-74
2021/05/28 10:42:15;;;;;;;10.55;7.78;;;;;;;19.27;100.00;100886.81;4898503;29;20028;-74
2021/05/28 10:45:01;;;;;;;9.43;8.43;;;;;;;19.50;100.00;100881.19;4900450;29;20107;-75
2021/05/28 10:47:46;;;;;;;9.10;8.18;;;;;;;18.92;100.00;100872.59;4900097;29;20024;-74
2021/05/28 10:50:45;;;;;;;11.13;8.35;;;;;;;19.06;100.00;100877.22;4898747;29;20092;-75
2021/05/28 10:53:31;;;;;;;10.60;9.43;;;;;;;19.23;100.00;100877.22;4899330;29;20374;-74
2021/05/28 10:56:36;;;;;;;10.35;9.20;;;;;;;19.31;100.00;100880.41;4898438;29;20076;-74
2021/05/28 10:59:23;;;;;;;10.35;9.07;;;;;;;18.91;100.00;100884.16;4898511;29;20079;-76
2021/05/28 11:02:08;;;;;;;11.00;9.88;;;;;;;19.09;100.00;100872.59;4899727;29;20029;-76
2021/05/28 11:05:14;;;;;;;13.77;9.85;;;;;;;19.36;100.00;100864.22;4919034;29;20024;-78
2021/05/28 11:08:00;;;;;;;14.80;11.40;;;;;;;19.31;100.00;100872.44;4905429;29;20039;-77
2021/05/28 11:10:46;;;;;;;11.75;10.25;;;;;;;18.55;100.00;100870.00;4905221;29;20028;-77
2021/05/28 11:13:32;;;;;;;12.77;10.93;;;;;;;18.70;100.00;100869.22;4917234;29;20126;-77
2021/05/28 11:16:17;;;;;;;15.88;11.30;;;;;;;18.97;100.00;100873.22;4917687;29;20036;-75
2021/05/28 11:19:30;;;;;;;12.80;11.35;;;;;;;18.73;100.00;100874.41;4918152;29;20124;-75
2021/05/28 11:22:30;;;;;;;13.23;11.48;;;;;;;18.57;100.00;100865.44;4906531;29;20087;-74
2021/05/28 11:25:18;;;;;;;15.65;12.07;;;;;;;19.00;100.00;100873.06;4918212;29;20071;-75
2021/05/28 11:28:07;;;;;;;16.00;13.75;;;;;;;19.07;100.00;100866.53;4907896;29;20051;-76
2021/05/28 11:30:56;;;;;;;16.33;13.48;;;;;;;18.92;100.00;100861.97;4908948;29;20032;-76
2021/05/28 11:33:43;;;;;;;17.02;13.85;;;;;;;18.95;100.00;100856.50;4908798;29;20056;-76
2021/05/28 11:36:33;;;;;;;17.40;13.90;;;;;;;18.94;100.00;100857.41;4921988;29;20515;-76
2021/05/28 11:39:26;;;;;;;16.55;13.50;;;;;;;19.33;100.00;100856.41;4921446;29;20028;-75
2021/05/28 11:42:20;;;;;;;14.98;13.05;;;;;;;19.19;100.00;100854.41;4909315;29;20038;-75
2021/05/28 11:45:08;;;;;;;18.10;14.27;;;;;;;19.21;100.00;100856.06;4910508;29;20024;-75
2021/05/28 11:47:54;;;;;;;16.50;14.15;;;;;;;19.48;100.00;100853.81;4908104;29;20037;-76
2021/05/28 11:50:46;;;;;;;17.33;14.15;;;;;;;19.24;100.00;100856.88;4920335;29;20028;-75
2021/05/28 11:53:37;;;;;;;17.38;13.68;;;;;;;19.09;100.00;100867.28;4908018;29;20402;-77
2021/05/28 11:56:24;;;;;;;17.15;12.90;;;;;;;18.97;100.00;100875.03;4921417;29;20492;-75
2021/05/28 11:59:09;;;;;;;14.65;12.55;;;;;;;19.10;100.00;100862.84;4921497;29;20028;-76
2021/05/28 12:01:56;;;;;;;15.30;13.02;;;;;;;19.25;100.00;100871.88;4920470;29;20039;-75
2021/05/28 12:04:44;;;;;;;17.02;13.95;;;;;;;19.36;100.00;100867.72;4920847;29;20052;-76
2021/05/28 12:07:30;;;;;;;16.27;12.88;;;;;;;19.44;100.00;100864.69;4921294;29;20028;-76
2021/05/28 12:10:17;;;;;;;16.77;12.15;;;;;;;19.43;100.00;100871.81;4920328;29;20055;-75
2021/05/28 12:13:14;;;;;;;17.27;13.07;;;;;;;19.16;100.00;100859.88;4920034;29;20123;-75
2021/05/28 12:16:08;;;;;;;13.00;11.55;;;;;;;19.10;100.00;100853.06;4921244;29;20110;-75
2021/05/28 12:18:54;;;;;;;18.65;14.68;;;;;;;19.45;100.00;100869.91;4919963;29;20043;-75
2021/05/28 12:21:40;;;;;;;12.80;11.35;;;;;;;18.90;100.00;100863.81;4920231;29;20066;-75
2021/05/28 12:24:27;;;;;;;15.50;11.57;;;;;;;18.88;100.00;100867.47;4919724;29;20036;-75
2021/05/28 12:27:13;;;;;;;13.80;12.25;;;;;;;19.41;100.00;100872.81;4921479;29;20028;-75
2021/05/28 12:29:59;;;;;;;15.75;12.70;;;;;;;19.74;100.00;100858.66;4919790;29;20024;-75
2021/05/28 12:32:45;;;;;;;12.73;10.43;;;;;;;19.79;100.00;100848.63;4907466;29;20361;-75
2021/05/28 12:35:31;;;;;;;14.25;9.85;;;;;;;19.44;100.00;100846.94;4919751;29;20032;-74
2021/05/28 12:38:19;;;;;;;10.77;8.30;;;;;;;19.57;100.00;100844.50;4919956;29;20032;-77